Time;durP1;ratioP1;P1;durP2;ratioP2;P2;SDS_P1;SDS_P2;PMS_P1;PMS_P2;Temp;Humidity;BMP_temperature;BMP_pressure;BME280_temperature;BME280_humidity;BME280_pressure;Samples;Min_cycle;Max_cycle;Signal;HPM_P1;HPM_P2
2021/06/03 00:02:04;;;;;;;5.25;3.97;;;19.10;69.20;;;;;;5089753;28;27402;-64
2021/06/03 00:04:49;;;;;;;6.55;4.25;;;19.10;69.70;;;;;;5090524;28;27317;-64
2021/06/03 00:07:33;;;;;;;6.70;4.03;;;19.10;69.50;;;;;;5090350;28;27402;-64
2021/06/03 00:10:18;;;;;;;6.55;4.70;;;19.00;69.00;;;;;;5090661;28;27329;-64
2021/06/03 00:13:03;;;;;;;4.85;4.32;;;19.00;68.80;;;;;;5090657;28;27444;-64
2021/06/03 00:15:49;;;;;;;7.18;4.47;;;18.90;69.20;;;;;;5090405;28;27391;-64
2021/06/03 00:18:33;;;;;;;8.63;4.40;;;18.90;69.00;;;;;;5086343;28;27360;-64
2021/06/03 00:21:18;;;;;;;9.02;4.22;;;18.80;69.90;;;;;;5090226;28;27395;-64
2021/06/03 00:24:03;;;;;;;4.60;4.13;;;18.80;69.70;;;;;;5090462;28;27422;-64
2021/06/03 00:26:48;;;;;;;9.27;4.57;;;18.70;69.60;;;;;;5090119;28;27347;-64
2021/06/03 00:29:32;;;;;;;5.57;4.25;;;18.70;69.30;;;;;;5089343;28;27391;-65
2021/06/03 00:32:17;;;;;;;8.02;4.68;;;18.70;69.90;;;;;;5090292;28;27435;-65
2021/06/03 00:35:04;;;;;;;4.80;4.25;;;18.60;69.70;;;;;;5090282;28;27457;-64
2021/06/03 00:37:49;;;;;;;5.68;4.00;;;18.60;69.70;;;;;;5089668;28;27423;-64
2021/06/03 00:40:33;;;;;;;5.25;4.07;;;18.60;70.70;;;;;;5071695;28;27374;-64
2021/06/03 00:43:19;;;;;;;5.03;4.22;;;18.60;70.80;;;;;;5090168;28;27316;-65
2021/06/03 00:46:04;;;;;;;7.60;4.60;;;18.50;70.60;;;;;;5090190;28;27385;-65
2021/06/03 00:48:49;;;;;;;6.40;4.72;;;18.50;70.30;;;;;;5088966;28;27390;-65
2021/06/03 00:51:33;;;;;;;7.28;4.40;;;18.50;70.30;;;;;;5083219;28;27377;-65
2021/06/03 00:54:23;;;;;;;8.07;5.05;;;18.50;70.30;;;;;;5086279;28;27386;-70
2021/06/03 00:57:11;;;;;;;6.68;4.82;;;18.40;70.30;;;;;;5086451;28;27420;-64
2021/06/03 00:59:56;;;;;;;7.55;4.70;;;18.40;70.60;;;;;;5086507;28;27470;-64
2021/06/03 01:02:41;;;;;;;5.28;4.38;;;18.40;70.00;;;;;;5086634;28;27411;-64
2021/06/03 01:05:40;;;;;;;7.88;4.80;;;18.30;70.80;;;;;;5086570;28;27469;-64
2021/06/03 01:08:32;;;;;;;5.35;4.30;;;18.30;70.50;;;;;;5086041;28;27462;-65
2021/06/03 01:11:28;;;;;;;5.13;3.85;;;18.30;70.90;;;;;;5082323;28;27372;-64
2021/06/03 01:14:27;;;;;;;6.65;4.50;;;18.20;70.90;;;;;;5086475;28;27455;-64
2021/06/03 01:17:12;;;;;;;4.93;4.30;;;18.20;70.40;;;;;;5086111;28;27872;-64
2021/06/03 01:19:57;;;;;;;5.43;4.47;;;18.20;69.60;;;;;;5083082;28;27436;-63
2021/06/03 01:22:53;;;;;;;6.55;4.75;;;18.10;70.40;;;;;;5082239;28;27448;-64
2021/06/03 01:25:38;;;;;;;8.55;5.60;;;18.10;69.80;;;;;;5100898;27;27409;-63
2021/06/03 01:28:24;;;;;;;6.22;5.00;;;18.10;69.90;;;;;;5082055;28;27442;-64
2021/06/03 01:31:09;;;;;;;5.57;4.70;;;18.10;69.80;;;;;;5081758;28;27537;-63
2021/06/03 01:33:54;;;;;;;10.40;5.72;;;18.10;70.00;;;;;;5085259;28;27501;-63
2021/06/03 01:36:38;;;;;;;7.78;5.10;;;18.10;70.70;;;;;;5085426;28;27422;-64
2021/06/03 01:39:23;;;;;;;7.15;5.05;;;18.10;70.60;;;;;;5086104;28;27458;-63
2021/06/03 01:42:07;;;;;;;7.97;5.03;;;18.10;71.40;;;;;;5071053;28;27418;-64
2021/06/03 01:44:52;;;;;;;6.45;4.72;;;18.10;71.40;;;;;;5067676;28;27497;-64
2021/06/03 01:47:37;;;;;;;8.65;4.95;;;18.10;72.20;;;;;;5085032;28;27425;-64
2021/06/03 01:50:22;;;;;;;7.45;4.88;;;18.10;71.30;;;;;;5085158;28;27884;-65
2021/06/03 01:53:11;;;;;;;7.22;4.95;;;18.10;72.20;;;;;;5067905;28;27470;-64
2021/06/03 01:56:03;;;;;;;7.63;5.70;;;18.10;71.90;;;;;;5085864;28;27301;-65
2021/06/03 01:58:48;;;;;;;8.02;5.50;;;18.10;71.00;;;;;;5085845;28;27534;-64
2021/06/03 02:01:33;;;;;;;7.22;5.00;;;18.10;72.20;;;;;;5084654;28;27487;-63
2021/06/03 02:04:18;;;;;;;6.80;5.35;;;18.10;72.20;;;;;;5085378;28;27408;-63
2021/06/03 02:07:02;;;;;;;6.78;5.22;;;18.10;72.50;;;;;;5085758;28;27419;-63
2021/06/03 02:09:48;;;;;;;8.00;5.53;;;18.10;72.60;;;;;;5085332;28;27418;-63
2021/06/03 02:12:35;;;;;;;5.43;4.20;;;18.10;72.50;;;;;;5085276;28;27520;-63
2021/06/03 02:15:22;;;;;;;7.82;4.53;;;18.10;72.60;;;;;;5068564;28;27497;-64
2021/06/03 02:18:08;;;;;;;10.50;5.30;;;18.10;72.80;;;;;;5085523;28;27473;-64
2021/06/03 02:20:53;;;;;;;11.65;5.80;;;18.10;71.80;;;;;;5067248;28;27345;-64
2021/06/03 02:23:39;;;;;;;7.07;5.38;;;18.10;72.20;;;;;;5084484;28;27430;-63
2021/06/03 02:26:25;;;;;;;9.32;5.63;;;18.10;72.60;;;;;;5067198;28;27345;-64
2021/06/03 02:29:17;;;;;;;8.38;5.45;;;18.10;73.90;;;;;;5084313;28;27498;-64
2021/06/03 02:32:16;;;;;;;8.63;6.05;;;18.10;73.20;;;;;;5084686;28;27438;-66
2021/06/03 02:35:04;;;;;;;9.68;6.03;;;18.10;73.20;;;;;;5085200;28;27495;-64
2021/06/03 02:37:49;;;;;;;8.95;6.18;;;18.10;72.20;;;;;;5081192;28;27504;-65
2021/06/03 02:40:35;;;;;;;10.88;6.15;;;18.10;73.00;;;;;;5084860;28;27452;-64
2021/06/03 02:43:20;;;;;;;9.55;6.38;;;18.10;72.60;;;;;;5085101;28;27455;-64
2021/06/03 02:46:05;;;;;;;9.50;5.95;;;18.10;73.30;;;;;;5085019;28;27419;-64
2021/06/03 02:48:50;;;;;;;9.10;5.57;;;18.10;73.50;;;;;;5084607;28;27704;-64
2021/06/03 02:51:35;;;;;;;8.93;5.78;;;18.20;73.40;;;;;;5084995;28;27507;-65
2021/06/03 02:54:20;;;;;;;10.32;5.93;;;18.10;73.50;;;;;;5080635;28;27451;-64
2021/06/03 02:57:08;;;;;;;10.00;6.30;;;18.10;73.70;;;;;;5080831;28;27418;-64
2021/06/03 02:59:54;;;;;;;5.93;4.85;;;18.20;73.60;;;;;;5080553;28;27333;-64
2021/06/03 03:02:40;;;;;;;9.40;6.10;;;18.20;74.00;;;;;;5080592;28;27317;-64
2021/06/03 03:05:26;;;;;;;8.63;5.85;;;18.10;74.00;;;;;;5080779;28;27306;-64
2021/06/03 03:08:11;;;;;;;8.93;5.85;;;18.20;74.10;;;;;;5083752;28;27431;-69
2021/06/03 03:10:57;;;;;;;8.93;5.25;;;18.20;74.10;;;;;;5080650;28;27387;-64
2021/06/03 03:13:47;;;;;;;6.50;5.35;;;18.20;74.00;;;;;;5083858;28;27340;-64
2021/06/03 03:16:35;;;;;;;7.57;5.82;;;18.20;74.50;;;;;;5083630;28;27438;-63
2021/06/03 03:19:21;;;;;;;7.75;5.38;;;18.20;74.50;;;;;;5080571;28;27332;-64
2021/06/03 03:22:06;;;;;;;7.18;5.50;;;18.10;74.40;;;;;;5080576;28;27398;-63
2021/06/03 03:24:53;;;;;;;10.63;5.30;;;18.10;74.30;;;;;;5084331;28;27443;-64
2021/06/03 03:27:37;;;;;;;7.47;5.60;;;18.10;74.40;;;;;;5084106;28;27442;-63
2021/06/03 03:30:23;;;;;;;6.45;4.88;;;18.10;74.60;;;;;;5084391;28;27421;-64
2021/06/03 03:33:09;;;;;;;5.43;4.82;;;18.10;74.80;;;;;;5084355;28;27461;-64
2021/06/03 03:35:54;;;;;;;7.43;4.90;;;18.10;75.00;;;;;;5083866;28;27490;-64
2021/06/03 03:38:45;;;;;;;7.03;4.75;;;18.10;74.90;;;;;;5080075;28;27386;-64
2021/06/03 03:41:30;;;;;;;5.70;4.93;;;18.10;74.80;;;;;;5084225;28;27382;-64
2021/06/03 03:44:15;;;;;;;6.60;4.20;;;18.10;74.80;;;;;;5066022;28;27374;-64
2021/06/03 03:47:00;;;;;;;5.93;4.30;;;18.10;75.10;;;;;;5083521;28;27351;-64
2021/06/03 03:49:45;;;;;;;5.20;4.40;;;18.10;75.00;;;;;;5083956;28;27344;-65
2021/06/03 03:52:34;;;;;;;5.25;4.45;;;18.10;75.20;;;;;;5080124;28;27481;-64
2021/06/03 03:55:21;;;;;;;4.90;3.97;;;18.10;75.30;;;;;;5084045;28;27508;-64
2021/06/03 03:58:05;;;;;;;4.97;4.43;;;18.10;75.30;;;;;;5084144;28;27466;-64
2021/06/03 04:00:50;;;;;;;6.80;4.57;;;18.10;75.50;;;;;;5065533;28;27456;-64
2021/06/03 04:03:39;;;;;;;4.80;4.25;;;18.10;76.50;;;;;;5083463;28;27928;-64
2021/06/03 04:06:25;;;;;;;5.07;3.88;;;18.10;75.70;;;;;;5083954;28;27343;-64
2021/06/03 04:09:12;;;;;;;4.13;3.70;;;18.10;75.50;;;;;;5065798;28;27327;-64
2021/06/03 04:11:57;;;;;;;4.03;3.38;;;18.10;75.60;;;;;;5065762;28;27435;-64
2021/06/03 04:14:42;;;;;;;6.97;4.82;;;18.10;75.80;;;;;;5083699;28;28023;-64
2021/06/03 04:17:28;;;;;;;5.63;3.47;;;18.20;75.80;;;;;;5083744;28;27429;-64
2021/06/03 04:20:15;;;;;;;3.45;3.10;;;18.20;75.10;;;;;;5083838;28;27415;-64
2021/06/03 04:23:01;;;;;;;13.00;4.40;;;18.10;74.20;;;;;;5083509;28;27466;-64
2021/06/03 04:25:49;;;;;;;6.10;3.75;;;18.20;73.90;;;;;;5083433;28;27378;-64
2021/06/03 04:28:34;;;;;;;5.20;3.70;;;18.20;73.70;;;;;;5086251;28;27349;-64
2021/06/03 04:31:19;;;;;;;5.47;4.22;;;18.20;73.80;;;;;;5086736;28;27341;-64
2021/06/03 04:34:03;;;;;;;8.18;3.80;;;18.20;73.90;;;;;;5087165;28;27312;-65
2021/06/03 04:36:48;;;;;;;5.22;4.50;;;18.20;74.00;;;;;;5087061;28;27380;-65
2021/06/03 04:39:32;;;;;;;5.53;4.40;;;18.20;74.40;;;;;;5087027;28;27592;-64
2021/06/03 04:42:16;;;;;;;4.47;3.72;;;18.20;74.50;;;;;;5086820;28;27423;-64
2021/06/03 04:45:01;;;;;;;5.13;4.63;;;18.30;74.40;;;;;;5086725;28;27405;-65
2021/06/03 04:47:46;;;;;;;5.18;3.53;;;18.30;74.30;;;;;;5086530;28;27439;-64
2021/06/03 04:50:31;;;;;;;6.70;4.32;;;18.30;74.50;;;;;;5082578;28;27449;-65
2021/06/03 04:53:18;;;;;;;5.93;3.75;;;18.30;74.60;;;;;;5086172;28;27462;-66
2021/06/03 04:56:03;;;;;;;4.30;3.90;;;18.30;74.60;;;;;;5086433;28;27378;-65
2021/06/03 04:58:47;;;;;;;4.88;4.38;;;18.30;74.40;;;;;;5086474;28;27926;-65
2021/06/03 05:01:34;;;;;;;4.32;3.92;;;18.30;74.80;;;;;;5086735;28;27458;-64
2021/06/03 05:04:19;;;;;;;10.93;4.50;;;18.30;75.00;;;;;;5082785;28;27395;-66
2021/06/03 05:07:03;;;;;;;4.97;4.30;;;18.30;75.00;;;;;;5086858;28;27395;-64
2021/06/03 05:09:48;;;;;;;3.85;3.33;;;18.40;75.00;;;;;;5086350;28;27385;-64
2021/06/03 05:12:33;;;;;;;6.47;4.07;;;18.40;75.00;;;;;;5083704;28;27360;-64
2021/06/03 05:15:18;;;;;;;5.88;4.45;;;18.40;75.00;;;;;;5086589;28;27408;-64
2021/06/03 05:18:03;;;;;;;5.43;4.50;;;18.40;74.70;;;;;;5085801;28;27403;-64
2021/06/03 05:20:53;;;;;;;5.25;4.57;;;18.40;75.00;;;;;;5086131;28;27422;-65
2021/06/03 05:23:37;;;;;;;5.35;4.60;;;18.40;75.00;;;;;;5085576;28;27490;-64
2021/06/03 05:26:22;;;;;;;4.43;4.03;;;18.40;75.00;;;;;;5086139;28;27380;-64
2021/06/03 05:29:07;;;;;;;5.45;4.53;;;18.50;75.10;;;;;;5085339;28;27594;-64
2021/06/03 05:31:52;;;;;;;5.25;4.28;;;18.50;75.10;;;;;;5085718;28;28497;-65
2021/06/03 05:34:36;;;;;;;4.93;4.40;;;18.50;75.00;;;;;;5086254;28;27348;-69
2021/06/03 05:37:21;;;;;;;5.72;5.03;;;18.60;75.40;;;;;;5085434;28;27364;-65
2021/06/03 05:40:06;;;;;;;4.80;4.30;;;18.60;75.50;;;;;;5086197;28;27333;-65
2021/06/03 05:42:51;;;;;;;8.18;4.00;;;18.60;75.80;;;;;;5085774;28;27988;-65
2021/06/03 05:45:35;;;;;;;6.28;4.25;;;18.70;76.10;;;;;;5082043;28;27423;-65
2021/06/03 05:48:20;;;;;;;10.10;4.70;;;18.70;76.20;;;;;;5085581;28;27320;-65
2021/06/03 05:51:04;;;;;;;4.97;4.45;;;18.80;76.40;;;;;;5085365;28;27391;-65
2021/06/03 05:53:49;;;;;;;6.07;4.53;;;18.80;76.40;;;;;;5085631;28;27340;-65
2021/06/03 05:56:34;;;;;;;5.07;4.15;;;18.90;76.70;;;;;;5085839;28;27316;-66
2021/06/03 05:59:18;;;;;;;5.55;4.75;;;19.00;77.30;;;;;;5084822;28;27426;-65
2021/06/03 06:02:05;;;;;;;6.45;4.57;;;19.10;77.80;;;;;;5085845;28;27336;-65
2021/06/03 06:07:53;;;;;;;4.50;4.03;;;19.20;78.20;;;;;;5084956;28;27384;-65
2021/06/03 06:10:39;;;;;;;6.68;3.83;;;19.30;78.50;;;;;;5085394;28;27410;-66
2021/06/03 06:13:23;;;;;;;4.38;3.85;;;19.40;78.60;;;;;;5085639;28;27315;-71
2021/06/03 06:16:08;;;;;;;4.13;3.70;;;19.50;78.80;;;;;;5085542;28;27353;-65
2021/06/03 06:18:53;;;;;;;3.97;3.53;;;19.60;79.00;;;;;;5084837;28;27364;-73
2021/06/03 06:21:38;;;;;;;4.43;3.55;;;19.60;79.40;;;;;;5085510;28;27486;-65
2021/06/03 06:24:22;;;;;;;4.25;3.55;;;19.80;80.00;;;;;;5085277;28;27420;-66
2021/06/03 06:27:07;;;;;;;4.47;3.78;;;19.80;79.60;;;;;;5085378;28;27442;-67
2021/06/03 06:29:52;;;;;;;4.22;3.83;;;19.90;79.70;;;;;;5084280;28;27708;-66
2021/06/03 06:32:37;;;;;;;4.30;3.38;;;20.00;80.00;;;;;;5084532;28;27478;-66
2021/06/03 06:35:22;;;;;;;4.93;3.80;;;20.10;79.50;;;;;;5085279;28;27450;-67
2021/06/03 06:38:06;;;;;;;4.22;3.47;;;20.30;79.80;;;;;;5085198;28;27461;-66
2021/06/03 06:40:51;;;;;;;4.47;4.03;;;20.40;80.30;;;;;;5084829;28;27502;-66
2021/06/03 06:43:37;;;;;;;4.28;3.88;;;20.40;79.70;;;;;;5085179;28;27414;-67
2021/06/03 06:46:25;;;;;;;3.78;3.47;;;20.50;79.60;;;;;;5083734;28;27420;-67
2021/06/03 06:49:09;;;;;;;5.00;3.88;;;20.60;79.70;;;;;;5083676;28;27395;-67
2021/06/03 06:51:54;;;;;;;5.68;3.70;;;20.60;79.50;;;;;;5085004;28;27598;-66
2021/06/03 06:54:39;;;;;;;4.25;3.78;;;20.70;80.00;;;;;;5081025;28;27403;-66
2021/06/03 06:57:24;;;;;;;8.93;4.07;;;20.70;80.50;;;;;;5084935;28;27321;-66
2021/06/03 07:00:10;;;;;;;4.18;3.78;;;20.80;80.80;;;;;;5084806;28;27439;-66
2021/06/03 07:02:54;;;;;;;6.28;3.40;;;20.90;80.20;;;;;;5084064;28;27451;-66
2021/06/03 07:05:40;;;;;;;4.25;3.25;;;21.00;81.60;;;;;;5084916;28;27348;-66
2021/06/03 07:08:25;;;;;;;4.18;3.50;;;21.30;83.50;;;;;;5084647;28;27307;-66
2021/06/03 07:11:10;;;;;;;4.18;3.47;;;21.50;81.70;;;;;;5084402;28;27410;-68
2021/06/03 07:13:54;;;;;;;7.28;3.20;;;21.70;79.40;;;;;;5080564;28;27341;-66
2021/06/03 07:16:39;;;;;;;4.95;3.70;;;21.90;78.30;;;;;;5084653;28;27309;-66
2021/06/03 07:19:23;;;;;;;4.28;3.40;;;22.10;77.60;;;;;;5084376;28;27394;-66
2021/06/03 07:22:08;;;;;;;5.70;3.70;;;22.30;76.40;;;;;;5084228;28;27841;-65
2021/06/03 07:25:16;;;;;;;3.55;2.80;;;22.40;75.50;;;;;;5084414;28;27444;-74
2021/06/03 07:28:09;;;;;;;3.08;2.72;;;22.50;75.50;;;;;;5071867;28;27368;-75
2021/06/03 07:30:54;;;;;;;3.50;3.20;;;22.80;76.60;;;;;;5084152;28;27401;-67
2021/06/03 07:33:38;;;;;;;3.28;2.83;;;23.10;76.10;;;;;;5083621;28;27401;-67
2021/06/03 07:36:23;;;;;;;3.88;3.40;;;23.20;74.40;;;;;;5084978;28;27398;-68
2021/06/03 07:39:07;;;;;;;3.65;3.20;;;23.20;73.60;;;;;;5084559;28;27402;-68
2021/06/03 07:41:53;;;;;;;5.97;3.22;;;23.20;72.60;;;;;;5083284;28;26896;-68
2021/06/03 07:44:37;;;;;;;4.20;3.00;;;23.10;74.30;;;;;;5083992;28;27418;-67
2021/06/03 07:47:22;;;;;;;4.68;3.10;;;23.10;75.00;;;;;;5083419;28;27482;-67
2021/06/03 07:50:11;;;;;;;3.20;2.78;;;23.10;76.00;;;;;;5084272;28;27492;-67
2021/06/03 07:52:56;;;;;;;4.15;3.75;;;23.10;74.20;;;;;;5083926;28;27383;-67
2021/06/03 07:55:41;;;;;;;3.05;2.72;;;23.00;73.60;;;;;;5083768;28;27843;-68
2021/06/03 07:58:25;;;;;;;2.58;2.38;;;23.00;73.60;;;;;;5083810;28;27418;-67
2021/06/03 08:01:12;;;;;;;2.97;2.72;;;23.00;74.00;;;;;;5085875;28;27414;-67
2021/06/03 08:03:57;;;;;;;3.03;2.53;;;22.90;72.80;;;;;;5087568;28;27379;-69
2021/06/03 08:06:41;;;;;;;4.00;2.70;;;22.90;73.00;;;;;;5088521;28;27403;-68
2021/06/03 08:09:26;;;;;;;3.60;2.67;;;23.00;74.00;;;;;;5083263;28;27371;-68
2021/06/03 08:12:11;;;;;;;3.50;2.78;;;23.00;74.70;;;;;;5087199;28;27594;-68
2021/06/03 08:14:56;;;;;;;4.65;2.50;;;23.00;74.30;;;;;;5087243;28;27376;-68
2021/06/03 08:17:40;;;;;;;3.13;2.60;;;23.00;74.90;;;;;;5087424;28;27341;-68
2021/06/03 08:20:45;;;;;;;2.75;2.55;;;23.10;75.30;;;;;;5087424;28;27612;-68
2021/06/03 08:23:30;;;;;;;4.20;3.03;;;23.10;74.30;;;;;;5087594;28;26971;-69
2021/06/03 08:26:15;;;;;;;4.88;2.92;;;23.10;74.00;;;;;;5087020;28;27340;-68
2021/06/03 08:28:59;;;;;;;3.63;2.65;;;23.20;75.00;;;;;;5086153;28;28059;-68
2021/06/03 08:31:44;;;;;;;4.35;2.20;;;23.20;75.00;;;;;;5086932;28;27403;-69
2021/06/03 08:34:31;;;;;;;3.95;2.97;;;23.20;73.90;;;;;;5087094;28;27345;-69
2021/06/03 08:37:16;;;;;;;5.30;2.92;;;23.30;74.10;;;;;;5086659;28;27369;-75
2021/06/03 08:40:01;;;;;;;4.57;2.40;;;23.40;73.70;;;;;;5086324;28;27977;-68
2021/06/03 08:42:45;;;;;;;5.57;3.08;;;23.50;73.10;;;;;;5086904;28;27337;-66
2021/06/03 08:45:31;;;;;;;6.18;2.72;;;23.60;70.60;;;;;;5086750;28;27407;-68
2021/06/03 08:48:16;;;;;;;3.40;2.22;;;23.80;70.60;;;;;;5086626;28;27317;-68
2021/06/03 08:51:03;;;;;;;3.63;2.60;;;24.20;71.90;;;;;;5086681;28;27339;-68
2021/06/03 08:53:49;;;;;;;4.28;2.50;;;24.70;70.70;;;;;;5086592;28;27415;-67
2021/06/03 08:56:36;;;;;;;2.97;2.33;;;25.20;70.90;;;;;;5086679;28;27422;-68
2021/06/03 08:59:21;;;;;;;2.95;1.95;;;25.60;67.60;;;;;;5086819;28;27415;-67
2021/06/03 09:02:06;;;;;;;3.38;2.30;;;26.10;67.10;;;;;;5086446;28;27415;-68
2021/06/03 09:04:50;;;;;;;2.85;2.08;;;26.40;65.70;;;;;;5086118;28;27410;-67
2021/06/03 09:07:37;;;;;;;3.85;2.33;;;26.80;66.30;;;;;;5086619;28;27465;-67
2021/06/03 09:10:30;;;;;;;4.70;2.10;;;27.10;66.00;;;;;;5086606;28;27414;-67
2021/06/03 09:13:19;;;;;;;3.42;2.50;;;27.50;68.00;;;;;;5085385;28;27466;-67
2021/06/03 09:16:10;;;;;;;7.22;2.70;;;27.80;67.10;;;;;;5086507;28;27371;-67
2021/06/03 09:18:55;;;;;;;5.38;2.80;;;28.10;66.10;;;;;;5086532;28;27394;-67
2021/06/03 09:21:47;;;;;;;5.05;2.67;;;28.30;62.80;;;;;;5086163;28;27406;-67
2021/06/03 09:24:32;;;;;;;5.15;2.42;;;28.50;62.10;;;;;;5086062;28;28082;-68
2021/06/03 09:27:18;;;;;;;4.35;2.35;;;28.60;52.30;;;;;;5086330;28;27373;-68
2021/06/03 09:30:03;;;;;;;6.47;2.92;;;28.60;51.40;;;;;;5099169;27;27419;-70
2021/06/03 09:32:54;;;;;;;4.43;2.20;;;28.60;49.40;;;;;;5084926;28;27325;-65
2021/06/03 09:35:53;;;;;;;3.60;2.25;;;28.60;48.70;;;;;;5086173;28;27104;-67
2021/06/03 09:38:57;;;;;;;4.00;2.20;;;28.70;51.10;;;;;;5085865;28;27458;-67
2021/06/03 09:42:03;;;;;;;2.63;2.33;;;28.70;51.90;;;;;;5085915;28;27392;-67
2021/06/03 09:44:49;;;;;;;5.28;2.35;;;29.00;54.40;;;;;;5085827;28;27414;-67
2021/06/03 09:47:37;;;;;;;3.30;1.95;;;29.20;56.10;;;;;;5081870;28;27486;-67
2021/06/03 09:50:23;;;;;;;2.55;1.90;;;29.30;58.40;;;;;;5085964;28;27407;-66
2021/06/03 09:53:07;;;;;;;5.57;2.47;;;29.50;62.60;;;;;;5086045;28;27528;-66
2021/06/03 09:55:52;;;;;;;2.88;1.95;;;29.70;61.90;;;;;;5085985;28;26995;-66
2021/06/03 09:58:37;;;;;;;3.08;2.03;;;29.80;62.30;;;;;;5085857;28;27892;-71
2021/06/03 10:01:42;;;;;;;2.83;1.92;;;30.00;60.50;;;;;;5082240;28;27532;-66
2021/06/03 10:04:46;;;;;;;2.97;2.03;;;30.20;60.90;;;;;;5085563;28;27408;-66
2021/06/03 10:07:31;;;;;;;3.10;2.17;;;30.20;60.90;;;;;;5085366;28;27427;-66
2021/06/03 10:10:16;;;;;;;2.17;1.80;;;29.90;61.10;;;;;;5085687;28;27427;-66
2021/06/03 10:13:05;;;;;;;4.57;1.98;;;29.50;60.10;;;;;;5085328;28;27478;-66
2021/06/03 10:15:50;;;;;;;2.17;1.90;;;29.40;58.20;;;;;;5085397;28;27335;-67
2021/06/03 10:18:34;;;;;;;4.65;2.22;;;29.50;57.70;;;;;;5085314;28;27399;-66
2021/06/03 10:21:19;;;;;;;2.17;1.90;;;29.40;55.40;;;;;;5085176;28;27376;-67
2021/06/03 10:24:03;;;;;;;3.75;2.17;;;29.40;56.70;;;;;;5085371;28;27332;-66
2021/06/03 10:26:56;;;;;;;3.63;2.20;;;29.40;56.30;;;;;;5085194;28;27677;-67
2021/06/03 10:29:40;;;;;;;3.65;1.80;;;29.60;56.80;;;;;;5084208;28;27431;-66
2021/06/03 10:32:27;;;;;;;2.30;2.10;;;29.80;57.70;;;;;;5085336;28;27405;-67
2021/06/03 10:35:14;;;;;;;2.47;1.85;;;30.00;57.10;;;;;;5081254;28;27457;-67
2021/06/03 10:37:58;;;;;;;6.20;2.00;;;30.20;56.20;;;;;;5085059;28;27321;-67
2021/06/03 10:40:48;;;;;;;2.45;2.25;;;30.30;57.90;;;;;;5084935;28;27420;-67
2021/06/03 10:43:36;;;;;;;2.15;1.90;;;30.50;58.00;;;;;;5084984;28;27402;-67
2021/06/03 10:46:20;;;;;;;1.92;1.63;;;30.70;60.80;;;;;;5085166;28;27408;-67
2021/06/03 10:49:05;;;;;;;1.60;1.50;;;30.90;59.00;;;;;;5084205;28;27447;-67
2021/06/03 10:51:50;;;;;;;3.05;1.63;;;31.00;57.90;;;;;;5098436;27;26872;-67
2021/06/03 10:54:45;;;;;;;2.42;1.80;;;31.20;55.20;;;;;;5083792;28;27961;-66
2021/06/03 10:57:52;;;;;;;4.70;1.70;;;31.30;60.60;;;;;;5084645;28;27474;-67
2021/06/03 11:00:44;;;;;;;1.90;1.50;;;31.40;58.00;;;;;;5080647;28;27349;-67
2021/06/03 11:03:39;;;;;;;2.42;1.67;;;31.30;57.10;;;;;;5084174;28;27486;-72
2021/06/03 11:06:25;;;;;;;3.80;1.88;;;31.00;54.70;;;;;;5084828;28;27798;-66
2021/06/03 11:09:10;;;;;;;2.30;1.55;;;30.90;55.00;;;;;;5084219;28;27411;-70
2021/06/03 11:12:09;;;;;;;3.58;1.60;;;30.80;53.50;;;;;;5084835;28;27423;-66
2021/06/03 11:14:59;;;;;;;2.40;1.67;;;30.80;55.10;;;;;;5084739;28;27308;-66
2021/06/03 11:17:51;;;;;;;3.70;1.58;;;30.60;54.50;;;;;;5084368;28;27439;-67
2021/06/03 11:20:41;;;;;;;2.72;1.90;;;30.30;57.30;;;;;;5084629;28;27337;-67
2021/06/03 11:23:34;;;;;;;2.95;2.05;;;30.00;56.70;;;;;;5081381;28;27466;-68
2021/06/03 11:26:38;;;;;;;3.03;1.80;;;29.80;59.10;;;;;;5084587;28;27456;-66
2021/06/03 11:29:29;;;;;;;5.75;1.77;;;29.70;61.00;;;;;;5083602;28;27397;-67
2021/06/03 11:32:15;;;;;;;3.25;2.00;;;29.80;63.80;;;;;;5084183;28;27419;-72
2021/06/03 11:35:06;;;;;;;5.75;1.85;;;29.90;64.90;;;;;;5083614;28;26898;-66
2021/06/03 11:37:51;;;;;;;2.75;1.77;;;30.00;61.90;;;;;;5084447;28;27493;-67
2021/06/03 11:40:41;;;;;;;2.65;2.00;;;30.00;65.70;;;;;;5084045;28;27428;-67
2021/06/03 11:43:26;;;;;;;2.40;1.92;;;30.00;67.90;;;;;;5084045;28;27359;-67
2021/06/03 11:46:11;;;;;;;2.63;1.67;;;29.90;66.30;;;;;;5084075;28;27336;-68
2021/06/03 11:48:56;;;;;;;2.58;2.00;;;29.80;67.90;;;;;;5079847;28;27412;-67
2021/06/03 11:52:07;;;;;;;2.42;1.88;;;29.50;66.10;;;;;;5080262;28;27857;-67
2021/06/03 11:54:53;;;;;;;5.45;2.30;;;29.40;68.20;;;;;;5083850;28;27423;-67
2021/06/03 11:57:38;;;;;;;8.18;1.95;;;29.20;65.50;;;;;;5083952;28;27486;-67
2021/06/03 12:00:23;;;;;;;1.80;1.70;;;29.10;64.50;;;;;;5083420;28;27499;-67
2021/06/03 12:03:33;;;;;;;4.53;2.05;;;29.00;64.10;;;;;;5097497;27;27485;-67
2021/06/03 12:06:24;;;;;;;2.67;2.08;;;28.90;62.50;;;;;;5084014;28;27470;-67
2021/06/03 12:09:18;;;;;;;3.47;1.70;;;28.90;63.00;;;;;;5083826;28;27386;-67
2021/06/03 12:12:07;;;;;;;2.30;2.10;;;28.80;63.10;;;;;;5083990;28;27360;-67
2021/06/03 12:14:51;;;;;;;3.45;2.10;;;28.90;65.70;;;;;;5083882;28;27981;-67
2021/06/03 12:17:36;;;;;;;2.00;1.80;;;29.00;66.30;;;;;;5083234;28;27612;-67
2021/06/03 12:20:20;;;;;;;4.18;1.92;;;29.30;67.70;;;;;;5083694;28;27341;-67
2021/06/03 12:23:05;;;;;;;2.78;1.55;;;29.50;66.80;;;;;;5079918;28;27328;-68
2021/06/03 12:25:50;;;;;;;1.55;1.45;;;29.80;64.20;;;;;;5083492;28;27395;-68
2021/06/03 12:28:35;;;;;;;3.45;1.55;;;30.10;61.80;;;;;;5082924;28;27387;-68
2021/06/03 12:31:21;;;;;;;2.08;1.63;;;30.30;62.70;;;;;;5083560;28;27418;-68
2021/06/03 12:34:06;;;;;;;2.20;1.75;;;30.40;60.30;;;;;;5083393;28;26996;-68
2021/06/03 12:36:51;;;;;;;2.38;1.75;;;30.60;59.60;;;;;;5082896;28;27953;-67
2021/06/03 12:39:36;;;;;;;3.50;2.00;;;30.70;64.00;;;;;;5083399;28;27296;-67
2021/06/03 12:42:23;;;;;;;4.35;1.63;;;30.80;64.50;;;;;;5083763;28;27410;-68
2021/06/03 12:45:09;;;;;;;1.80;1.48;;;31.00;62.40;;;;;;5083136;28;27521;-69
2021/06/03 12:47:54;;;;;;;1.80;1.70;;;31.10;62.30;;;;;;5084659;28;27433;-68
2021/06/03 12:50:41;;;;;;;4.65;2.00;;;31.20;64.40;;;;;;5086703;28;27435;-68
2021/06/03 12:53:25;;;;;;;2.25;1.55;;;31.20;63.50;;;;;;5087035;28;27472;-68
2021/06/03 12:56:22;;;;;;;2.38;1.80;;;31.00;61.20;;;;;;5086714;28;27492;-68
2021/06/03 12:59:23;;;;;;;1.70;1.58;;;30.70;57.30;;;;;;5086607;28;27472;-68
2021/06/03 13:02:13;;;;;;;2.83;1.92;;;30.40;57.70;;;;;;5086134;28;27463;-73
2021/06/03 13:04:58;;;;;;;3.90;2.08;;;30.30;58.20;;;;;;5086882;28;27332;-68
2021/06/03 13:07:44;;;;;;;1.83;1.65;;;30.20;61.10;;;;;;5086688;28;27442;-68
2021/06/03 13:10:28;;;;;;;7.15;2.55;;;30.20;58.50;;;;;;5086975;28;27313;-68
2021/06/03 13:13:13;;;;;;;2.78;1.48;;;30.20;57.00;;;;;;5085839;28;27522;-68
2021/06/03 13:15:57;;;;;;;3.47;1.60;;;30.00;55.70;;;;;;5086806;28;27466;-67
2021/06/03 13:18:42;;;;;;;3.50;2.13;;;29.90;58.90;;;;;;5086308;28;27429;-67
2021/06/03 13:21:27;;;;;;;3.00;1.92;;;29.80;59.90;;;;;;5086274;28;27395;-67
2021/06/03 13:24:18;;;;;;;3.47;1.88;;;29.70;58.80;;;;;;5086446;28;27614;-73
2021/06/03 13:27:08;;;;;;;2.00;1.80;;;29.50;57.50;;;;;;5086411;28;27664;-67
2021/06/03 13:29:55;;;;;;;2.95;1.63;;;29.40;59.20;;;;;;5085445;28;27411;-67
2021/06/03 13:32:40;;;;;;;2.05;1.67;;;29.30;57.80;;;;;;5086314;28;27331;-67
2021/06/03 13:35:25;;;;;;;2.08;1.67;;;29.20;61.30;;;;;;5086301;28;27423;-67
2021/06/03 13:38:09;;;;;;;3.50;1.95;;;29.30;60.50;;;;;;5086317;28;27347;-72
2021/06/03 13:40:55;;;;;;;2.28;1.92;;;29.40;63.20;;;;;;5085824;28;27385;-68
2021/06/03 13:43:40;;;;;;;2.25;2.05;;;29.50;61.80;;;;;;5085883;28;27327;-67
2021/06/03 13:46:24;;;;;;;6.72;2.03;;;29.70;62.30;;;;;;5085844;28;27313;-68
2021/06/03 13:49:09;;;;;;;4.78;1.73;;;29.80;61.70;;;;;;5085961;28;27341;-67
2021/06/03 13:52:01;;;;;;;3.47;1.85;;;30.00;61.60;;;;;;5099585;27;27329;-67
2021/06/03 13:54:46;;;;;;;3.15;1.70;;;30.10;61.60;;;;;;5081740;28;27522;-67
2021/06/03 13:57:44;;;;;;;1.85;1.52;;;30.10;60.30;;;;;;5084848;28;27443;-67
2021/06/03 14:00:37;;;;;;;2.08;1.58;;;30.10;60.30;;;;;;5081691;28;27395;-67
2021/06/03 14:03:22;;;;;;;3.53;1.70;;;30.00;60.70;;;;;;5085882;28;27409;-73
2021/06/03 14:06:06;;;;;;;2.40;1.42;;;29.80;59.10;;;;;;5085068;28;27416;-67
2021/06/03 14:08:52;;;;;;;2.08;1.40;;;29.70;59.10;;;;;;5085294;28;27423;-67
2021/06/03 14:14:37;;;;;;;4.82;1.73;;;29.30;57.30;;;;;;5085450;28;27331;-67
2021/06/03 14:17:21;;;;;;;6.10;2.00;;;29.10;57.90;;;;;;5085321;28;27325;-67
2021/06/03 14:20:15;;;;;;;3.70;1.63;;;28.90;58.60;;;;;;5085320;28;27427;-67
2021/06/03 14:23:00;;;;;;;3.33;1.70;;;28.80;56.70;;;;;;5085610;28;27364;-68
2021/06/03 14:25:44;;;;;;;7.43;2.03;;;28.50;51.50;;;;;;5084555;28;27372;-75
2021/06/03 14:28:29;;;;;;;4.32;1.80;;;28.30;53.10;;;;;;5083824;28;28004;-69
2021/06/03 14:31:14;;;;;;;5.07;1.70;;;28.20;55.70;;;;;;5085204;28;27586;-78
2021/06/03 14:33:59;;;;;;;6.60;1.77;;;28.10;60.30;;;;;;5084931;28;27332;-72